sensor_id;sensor_type;location;lat;lon;timestamp;temperature;humidity
42755;DHT22;28407;51.830;5.684;2023-07-08T00:00:55;23.60;50.10
42755;DHT22;28407;51.830;5.684;2023-07-08T00:02:55;23.60;50.20
42755;DHT22;28407;51.830;5.684;2023-07-08T00:04:56;23.60;50.20
42755;DHT22;28407;51.830;5.684;2023-07-08T00:06:57;23.50;50.20
42755;DHT22;28407;51.830;5.684;2023-07-08T00:08:57;23.50;50.30
42755;DHT22;28407;51.830;5.684;2023-07-08T00:10:58;23.50;50.30
42755;DHT22;28407;51.830;5.684;2023-07-08T00:12:59;23.50;50.30
42755;DHT22;28407;51.830;5.684;2023-07-08T00:15:00;23.50;50.40
42755;DHT22;28407;51.830;5.684;2023-07-08T00:17:00;23.50;50.40
42755;DHT22;28407;51.830;5.684;2023-07-08T00:19:01;23.40;50.30
42755;DHT22;28407;51.830;5.684;2023-07-08T00:21:02;23.40;50.40
42755;DHT22;28407;51.830;5.684;2023-07-08T00:23:03;23.40;50.40
42755;DHT22;28407;51.830;5.684;2023-07-08T00:25:05;23.40;50.40
42755;DHT22;28407;51.830;5.684;2023-07-08T00:27:11;23.40;50.50
42755;DHT22;28407;51.830;5.684;2023-07-08T00:29:15;23.40;50.50
42755;DHT22;28407;51.830;5.684;2023-07-08T00:31:17;23.40;50.50
42755;DHT22;28407;51.830;5.684;2023-07-08T00:33:17;23.30;50.50
42755;DHT22;28407;51.830;5.684;2023-07-08T00:35:22;23.30;50.60
42755;DHT22;28407;51.830;5.684;2023-07-08T00:37:23;23.30;50.70
42755;DHT22;28407;51.830;5.684;2023-07-08T00:39:24;23.20;50.70
42755;DHT22;28407;51.830;5.684;2023-07-08T00:43:38;23.20;50.90
42755;DHT22;28407;51.830;5.684;2023-07-08T00:45:42;23.10;50.90
42755;DHT22;28407;51.830;5.684;2023-07-08T00:47:45;23.10;51.00
42755;DHT22;28407;51.830;5.684;2023-07-08T00:49:57;23.10;51.00
42755;DHT22;28407;51.830;5.684;2023-07-08T00:52:18;23.10;51.10
42755;DHT22;28407;51.830;5.684;2023-07-08T00:54:20;23.10;51.10
42755;DHT22;28407;51.830;5.684;2023-07-08T00:58:39;23.00;51.10
42755;DHT22;28407;51.830;5.684;2023-07-08T01:00:42;23.00;51.20
42755;DHT22;28407;51.830;5.684;2023-07-08T01:02:50;22.90;51.20
42755;DHT22;28407;51.830;5.684;2023-07-08T01:04:58;22.90;51.30
42755;DHT22;28407;51.830;5.684;2023-07-08T01:07:02;22.90;51.40
42755;DHT22;28407;51.830;5.684;2023-07-08T01:09:04;22.90;51.40
42755;DHT22;28407;51.830;5.684;2023-07-08T01:11:09;22.90;51.40
42755;DHT22;28407;51.830;5.684;2023-07-08T01:13:11;22.80;51.40
42755;DHT22;28407;51.830;5.684;2023-07-08T01:15:13;22.80;51.50
42755;DHT22;28407;51.830;5.684;2023-07-08T01:17:15;22.80;51.50
42755;DHT22;28407;51.830;5.684;2023-07-08T01:19:20;22.70;51.60
42755;DHT22;28407;51.830;5.684;2023-07-08T01:21:37;22.80;51.70
42755;DHT22;28407;51.830;5.684;2023-07-08T01:23:38;22.70;51.70
42755;DHT22;28407;51.830;5.684;2023-07-08T01:25:41;22.70;51.70
42755;DHT22;28407;51.830;5.684;2023-07-08T01:27:46;22.70;51.70
42755;DHT22;28407;51.830;5.684;2023-07-08T01:29:48;22.70;51.80
42755;DHT22;28407;51.830;5.684;2023-07-08T01:31:49;22.70;51.80
42755;DHT22;28407;51.830;5.684;2023-07-08T01:33:52;22.60;51.90
42755;DHT22;28407;51.830;5.684;2023-07-08T01:35:53;22.60;52.60
42755;DHT22;28407;51.830;5.684;2023-07-08T01:37:57;22.60;52.10
42755;DHT22;28407;51.830;5.684;2023-07-08T01:42:19;22.50;52.10
42755;DHT22;28407;51.830;5.684;2023-07-08T01:44:26;22.50;52.20
42755;DHT22;28407;51.830;5.684;2023-07-08T01:46:27;22.50;52.30
42755;DHT22;28407;51.830;5.684;2023-07-08T01:48:33;22.50;52.30
42755;DHT22;28407;51.830;5.684;2023-07-08T01:50:38;22.50;52.30
42755;DHT22;28407;51.830;5.684;2023-07-08T01:52:42;22.50;52.40
42755;DHT22;28407;51.830;5.684;2023-07-08T01:54:43;22.50;52.40
42755;DHT22;28407;51.830;5.684;2023-07-08T01:56:44;22.50;52.40
42755;DHT22;28407;51.830;5.684;2023-07-08T01:58:44;22.50;52.50
42755;DHT22;28407;51.830;5.684;2023-07-08T02:00:45;22.40;52.50
42755;DHT22;28407;51.830;5.684;2023-07-08T02:02:50;22.50;52.50
42755;DHT22;28407;51.830;5.684;2023-07-08T02:04:51;22.50;52.60
42755;DHT22;28407;51.830;5.684;2023-07-08T02:06:54;22.40;52.50
42755;DHT22;28407;51.830;5.684;2023-07-08T02:08:55;22.40;52.60
42755;DHT22;28407;51.830;5.684;2023-07-08T02:10:59;22.40;53.30
42755;DHT22;28407;51.830;5.684;2023-07-08T02:12:59;22.40;52.80
42755;DHT22;28407;51.830;5.684;2023-07-08T02:15:01;22.40;52.80
42755;DHT22;28407;51.830;5.684;2023-07-08T02:17:02;22.30;52.80
42755;DHT22;28407;51.830;5.684;2023-07-08T02:19:06;22.30;52.90
42755;DHT22;28407;51.830;5.684;2023-07-08T02:21:06;22.30;53.00
42755;DHT22;28407;51.830;5.684;2023-07-08T02:23:07;22.30;53.00
42755;DHT22;28407;51.830;5.684;2023-07-08T02:25:08;22.20;53.00
42755;DHT22;28407;51.830;5.684;2023-07-08T02:27:09;22.20;53.10
42755;DHT22;28407;51.830;5.684;2023-07-08T02:29:10;22.20;53.10
42755;DHT22;28407;51.830;5.684;2023-07-08T02:31:11;22.20;53.20
42755;DHT22;28407;51.830;5.684;2023-07-08T02:33:12;22.20;53.20
42755;DHT22;28407;51.830;5.684;2023-07-08T02:35:13;22.20;53.20
42755;DHT22;28407;51.830;5.684;2023-07-08T02:37:14;22.20;53.30
42755;DHT22;28407;51.830;5.684;2023-07-08T02:39:15;22.20;53.30
42755;DHT22;28407;51.830;5.684;2023-07-08T02:41:15;22.20;53.30
42755;DHT22;28407;51.830;5.684;2023-07-08T02:43:16;22.10;53.40
42755;DHT22;28407;51.830;5.684;2023-07-08T02:45:18;22.10;53.40
42755;DHT22;28407;51.830;5.684;2023-07-08T02:47:19;22.10;53.50
42755;DHT22;28407;51.830;5.684;2023-07-08T02:49:20;22.10;53.60
42755;DHT22;28407;51.830;5.684;2023-07-08T02:51:20;22.00;53.60
42755;DHT22;28407;51.830;5.684;2023-07-08T02:53:21;22.00;53.60
42755;DHT22;28407;51.830;5.684;2023-07-08T02:55:22;22.00;53.60
42755;DHT22;28407;51.830;5.684;2023-07-08T02:57:22;22.00;53.70
42755;DHT22;28407;51.830;5.684;2023-07-08T02:59:23;22.00;53.70
42755;DHT22;28407;51.830;5.684;2023-07-08T03:01:24;22.00;53.70
42755;DHT22;28407;51.830;5.684;2023-07-08T03:03:27;22.00;53.80
42755;DHT22;28407;51.830;5.684;2023-07-08T03:05:31;22.00;53.90
42755;DHT22;28407;51.830;5.684;2023-07-08T03:07:32;21.90;53.90
42755;DHT22;28407;51.830;5.684;2023-07-08T03:09:33;21.90;53.90
42755;DHT22;28407;51.830;5.684;2023-07-08T03:11:34;21.90;54.00
42755;DHT22;28407;51.830;5.684;2023-07-08T03:13:35;21.80;54.10
42755;DHT22;28407;51.830;5.684;2023-07-08T03:15:36;21.80;54.10
42755;DHT22;28407;51.830;5.684;2023-07-08T03:17:37;21.80;54.20
42755;DHT22;28407;51.830;5.684;2023-07-08T03:19:37;21.80;54.30
42755;DHT22;28407;51.830;5.684;2023-07-08T03:21:38;21.70;54.30
42755;DHT22;28407;51.830;5.684;2023-07-08T03:23:40;21.70;54.40
42755;DHT22;28407;51.830;5.684;2023-07-08T03:25:42;21.70;54.40
42755;DHT22;28407;51.830;5.684;2023-07-08T03:27:44;21.70;54.40
42755;DHT22;28407;51.830;5.684;2023-07-08T03:29:45;21.70;54.50
42755;DHT22;28407;51.830;5.684;2023-07-08T03:31:47;21.70;54.50
42755;DHT22;28407;51.830;5.684;2023-07-08T03:33:48;21.60;54.50
42755;DHT22;28407;51.830;5.684;2023-07-08T03:35:49;21.60;54.70
42755;DHT22;28407;51.830;5.684;2023-07-08T03:37:52;21.60;54.70
42755;DHT22;28407;51.830;5.684;2023-07-08T03:39:52;21.60;54.80
42755;DHT22;28407;51.830;5.684;2023-07-08T03:41:53;21.60;54.90
42755;DHT22;28407;51.830;5.684;2023-07-08T03:43:54;21.60;54.90
42755;DHT22;28407;51.830;5.684;2023-07-08T03:45:56;21.50;54.90
42755;DHT22;28407;51.830;5.684;2023-07-08T03:47:57;21.50;55.00
42755;DHT22;28407;51.830;5.684;2023-07-08T03:49:58;21.50;55.00
42755;DHT22;28407;51.830;5.684;2023-07-08T03:51:58;21.50;55.10
42755;DHT22;28407;51.830;5.684;2023-07-08T03:53:59;21.50;55.20
42755;DHT22;28407;51.830;5.684;2023-07-08T03:56:00;21.50;55.30
42755;DHT22;28407;51.830;5.684;2023-07-08T03:58:01;21.40;55.30
42755;DHT22;28407;51.830;5.684;2023-07-08T04:00:05;21.40;55.30
42755;DHT22;28407;51.830;5.684;2023-07-08T04:02:14;21.40;55.40
42755;DHT22;28407;51.830;5.684;2023-07-08T04:04:15;21.40;55.40
42755;DHT22;28407;51.830;5.684;2023-07-08T04:06:17;21.40;55.50
42755;DHT22;28407;51.830;5.684;2023-07-08T04:08:18;21.40;55.50
42755;DHT22;28407;51.830;5.684;2023-07-08T04:10:19;21.30;55.60
42755;DHT22;28407;51.830;5.684;2023-07-08T04:12:20;21.40;55.70
42755;DHT22;28407;51.830;5.684;2023-07-08T04:14:21;21.30;55.60
42755;DHT22;28407;51.830;5.684;2023-07-08T04:16:35;21.40;55.70
42755;DHT22;28407;51.830;5.684;2023-07-08T04:18:42;21.30;55.80
42755;DHT22;28407;51.830;5.684;2023-07-08T04:20:43;21.30;55.80
42755;DHT22;28407;51.830;5.684;2023-07-08T04:22:44;21.30;55.80
42755;DHT22;28407;51.830;5.684;2023-07-08T04:24:45;21.30;55.80
42755;DHT22;28407;51.830;5.684;2023-07-08T04:26:47;21.30;55.80
42755;DHT22;28407;51.830;5.684;2023-07-08T04:28:48;21.30;55.90
42755;DHT22;28407;51.830;5.684;2023-07-08T04:30:49;21.30;56.00
42755;DHT22;28407;51.830;5.684;2023-07-08T04:32:51;21.30;56.10
42755;DHT22;28407;51.830;5.684;2023-07-08T04:34:52;21.30;56.20
42755;DHT22;28407;51.830;5.684;2023-07-08T04:36:53;21.30;56.10
42755;DHT22;28407;51.830;5.684;2023-07-08T04:38:53;21.30;56.10
42755;DHT22;28407;51.830;5.684;2023-07-08T04:40:54;21.30;56.10
42755;DHT22;28407;51.830;5.684;2023-07-08T04:42:55;21.30;56.20
42755;DHT22;28407;51.830;5.684;2023-07-08T04:44:56;21.30;56.30
42755;DHT22;28407;51.830;5.684;2023-07-08T04:46:57;21.30;56.30
42755;DHT22;28407;51.830;5.684;2023-07-08T04:48:58;21.30;56.40
42755;DHT22;28407;51.830;5.684;2023-07-08T04:51:00;21.30;56.40
42755;DHT22;28407;51.830;5.684;2023-07-08T04:53:01;21.30;56.40
42755;DHT22;28407;51.830;5.684;2023-07-08T04:55:02;21.30;56.50
42755;DHT22;28407;51.830;5.684;2023-07-08T04:57:04;21.30;56.50
42755;DHT22;28407;51.830;5.684;2023-07-08T04:59:06;21.30;56.60
42755;DHT22;28407;51.830;5.684;2023-07-08T05:01:07;21.30;56.70
42755;DHT22;28407;51.830;5.684;2023-07-08T05:03:08;21.30;56.80
42755;DHT22;28407;51.830;5.684;2023-07-08T05:05:09;21.30;56.90
42755;DHT22;28407;51.830;5.684;2023-07-08T05:07:10;21.30;56.90
42755;DHT22;28407;51.830;5.684;2023-07-08T05:09:10;21.30;57.00
42755;DHT22;28407;51.830;5.684;2023-07-08T05:11:11;21.30;57.00
42755;DHT22;28407;51.830;5.684;2023-07-08T05:13:12;21.30;57.00
42755;DHT22;28407;51.830;5.684;2023-07-08T05:15:13;21.30;57.00
42755;DHT22;28407;51.830;5.684;2023-07-08T05:17:14;21.30;57.00
42755;DHT22;28407;51.830;5.684;2023-07-08T05:19:15;21.40;57.10
42755;DHT22;28407;51.830;5.684;2023-07-08T05:21:17;21.30;57.10
42755;DHT22;28407;51.830;5.684;2023-07-08T05:23:19;21.40;57.20
42755;DHT22;28407;51.830;5.684;2023-07-08T05:25:20;21.30;57.30
42755;DHT22;28407;51.830;5.684;2023-07-08T05:27:24;21.40;57.30
42755;DHT22;28407;51.830;5.684;2023-07-08T05:29:25;21.40;57.30
42755;DHT22;28407;51.830;5.684;2023-07-08T05:31:26;21.40;57.40
42755;DHT22;28407;51.830;5.684;2023-07-08T05:33:29;21.40;57.40
42755;DHT22;28407;51.830;5.684;2023-07-08T05:35:30;21.40;57.40
42755;DHT22;28407;51.830;5.684;2023-07-08T05:37:31;21.50;57.50
42755;DHT22;28407;51.830;5.684;2023-07-08T05:39:31;21.50;57.50
42755;DHT22;28407;51.830;5.684;2023-07-08T05:41:32;21.50;57.50
42755;DHT22;28407;51.830;5.684;2023-07-08T05:43:33;21.50;57.50
42755;DHT22;28407;51.830;5.684;2023-07-08T05:45:33;21.50;57.50
42755;DHT22;28407;51.830;5.684;2023-07-08T05:47:37;21.50;57.60
42755;DHT22;28407;51.830;5.684;2023-07-08T05:49:37;21.60;57.70
42755;DHT22;28407;51.830;5.684;2023-07-08T05:51:38;21.60;57.60
42755;DHT22;28407;51.830;5.684;2023-07-08T05:53:39;21.60;57.60
42755;DHT22;28407;51.830;5.684;2023-07-08T05:55:40;21.60;57.70
42755;DHT22;28407;51.830;5.684;2023-07-08T05:57:42;21.60;57.70
42755;DHT22;28407;51.830;5.684;2023-07-08T05:59:44;21.60;57.70
42755;DHT22;28407;51.830;5.684;2023-07-08T06:01:44;21.60;57.60
42755;DHT22;28407;51.830;5.684;2023-07-08T06:03:45;21.70;57.70
42755;DHT22;28407;51.830;5.684;2023-07-08T06:05:46;21.70;57.70
42755;DHT22;28407;51.830;5.684;2023-07-08T06:07:47;21.80;57.70
42755;DHT22;28407;51.830;5.684;2023-07-08T06:09:47;21.80;57.60
42755;DHT22;28407;51.830;5.684;2023-07-08T06:11:48;21.80;57.60
42755;DHT22;28407;51.830;5.684;2023-07-08T06:13:48;21.90;57.70
42755;DHT22;28407;51.830;5.684;2023-07-08T06:15:49;21.90;57.60
42755;DHT22;28407;51.830;5.684;2023-07-08T06:17:50;21.90;57.60
42755;DHT22;28407;51.830;5.684;2023-07-08T06:19:50;21.90;57.60
42755;DHT22;28407;51.830;5.684;2023-07-08T06:21:51;22.00;57.60
42755;DHT22;28407;51.830;5.684;2023-07-08T06:23:52;22.00;57.50
42755;DHT22;28407;51.830;5.684;2023-07-08T06:25:52;22.00;57.50
42755;DHT22;28407;51.830;5.684;2023-07-08T06:27:53;22.10;57.50
42755;DHT22;28407;51.830;5.684;2023-07-08T06:29:54;22.00;57.40
42755;DHT22;28407;51.830;5.684;2023-07-08T06:31:55;22.10;57.40
42755;DHT22;28407;51.830;5.684;2023-07-08T06:33:55;22.10;57.40
42755;DHT22;28407;51.830;5.684;2023-07-08T06:35:56;22.10;58.00
42755;DHT22;28407;51.830;5.684;2023-07-08T06:37:57;22.20;57.50
42755;DHT22;28407;51.830;5.684;2023-07-08T06:39:58;22.20;57.40
42755;DHT22;28407;51.830;5.684;2023-07-08T06:41:59;22.20;57.40
42755;DHT22;28407;51.830;5.684;2023-07-08T06:44:05;22.30;57.40
42755;DHT22;28407;51.830;5.684;2023-07-08T06:46:06;22.40;57.40
42755;DHT22;28407;51.830;5.684;2023-07-08T06:48:07;22.40;57.30
42755;DHT22;28407;51.830;5.684;2023-07-08T06:50:08;22.40;57.30
42755;DHT22;28407;51.830;5.684;2023-07-08T06:52:08;22.50;57.30
42755;DHT22;28407;51.830;5.684;2023-07-08T06:54:09;22.50;57.20
42755;DHT22;28407;51.830;5.684;2023-07-08T06:56:13;22.60;57.20
42755;DHT22;28407;51.830;5.684;2023-07-08T06:58:14;22.60;57.10
42755;DHT22;28407;51.830;5.684;2023-07-08T07:00:15;22.70;57.10
42755;DHT22;28407;51.830;5.684;2023-07-08T07:02:15;22.70;57.00
42755;DHT22;28407;51.830;5.684;2023-07-08T07:04:17;22.80;57.00
42755;DHT22;28407;51.830;5.684;2023-07-08T07:06:18;22.80;56.90
42755;DHT22;28407;51.830;5.684;2023-07-08T07:08:18;22.80;56.90
42755;DHT22;28407;51.830;5.684;2023-07-08T07:10:20;22.90;56.90
42755;DHT22;28407;51.830;5.684;2023-07-08T07:12:21;22.90;56.90
42755;DHT22;28407;51.830;5.684;2023-07-08T07:14:21;23.00;56.90
42755;DHT22;28407;51.830;5.684;2023-07-08T07:16:23;23.00;56.80
42755;DHT22;28407;51.830;5.684;2023-07-08T07:18:24;23.00;56.80
42755;DHT22;28407;51.830;5.684;2023-07-08T07:20:25;23.10;56.80
42755;DHT22;28407;51.830;5.684;2023-07-08T07:22:25;23.20;56.80
42755;DHT22;28407;51.830;5.684;2023-07-08T07:24:26;23.20;56.70
42755;DHT22;28407;51.830;5.684;2023-07-08T07:26:27;23.20;56.70
42755;DHT22;28407;51.830;5.684;2023-07-08T07:28:27;23.30;56.80
42755;DHT22;28407;51.830;5.684;2023-07-08T07:30:28;23.30;56.70
42755;DHT22;28407;51.830;5.684;2023-07-08T07:32:29;23.40;57.30
42755;DHT22;28407;51.830;5.684;2023-07-08T07:34:30;23.50;56.60
42755;DHT22;28407;51.830;5.684;2023-07-08T07:36:30;23.50;56.50
42755;DHT22;28407;51.830;5.684;2023-07-08T07:38:33;23.50;56.30
42755;DHT22;28407;51.830;5.684;2023-07-08T07:40:34;23.60;56.20
42755;DHT22;28407;51.830;5.684;2023-07-08T07:42:34;23.70;56.10
42755;DHT22;28407;51.830;5.684;2023-07-08T07:44:35;23.70;55.80
42755;DHT22;28407;51.830;5.684;2023-07-08T07:46:36;23.80;55.60
42755;DHT22;28407;51.830;5.684;2023-07-08T07:48:37;23.80;55.40
42755;DHT22;28407;51.830;5.684;2023-07-08T07:50:37;23.90;55.30
42755;DHT22;28407;51.830;5.684;2023-07-08T07:52:38;24.00;55.00
42755;DHT22;28407;51.830;5.684;2023-07-08T07:54:39;24.00;54.70
42755;DHT22;28407;51.830;5.684;2023-07-08T07:56:39;24.10;54.60
42755;DHT22;28407;51.830;5.684;2023-07-08T07:58:40;24.10;54.50
42755;DHT22;28407;51.830;5.684;2023-07-08T08:00:41;24.20;54.40
42755;DHT22;28407;51.830;5.684;2023-07-08T08:02:42;24.20;54.30
42755;DHT22;28407;51.830;5.684;2023-07-08T08:04:42;24.30;54.20
42755;DHT22;28407;51.830;5.684;2023-07-08T08:06:43;24.40;54.20
42755;DHT22;28407;51.830;5.684;2023-07-08T08:08:46;24.40;54.00
42755;DHT22;28407;51.830;5.684;2023-07-08T08:10:49;24.40;53.90
42755;DHT22;28407;51.830;5.684;2023-07-08T08:12:50;24.50;53.80
42755;DHT22;28407;51.830;5.684;2023-07-08T08:14:53;24.60;53.80
42755;DHT22;28407;51.830;5.684;2023-07-08T08:16:53;24.60;53.60
42755;DHT22;28407;51.830;5.684;2023-07-08T08:18:54;24.60;53.50
42755;DHT22;28407;51.830;5.684;2023-07-08T08:20:55;24.70;53.50
42755;DHT22;28407;51.830;5.684;2023-07-08T08:22:56;24.70;53.30
42755;DHT22;28407;51.830;5.684;2023-07-08T08:24:56;24.80;53.20
42755;DHT22;28407;51.830;5.684;2023-07-08T08:26:57;24.80;53.10
42755;DHT22;28407;51.830;5.684;2023-07-08T08:28:57;24.90;53.10
42755;DHT22;28407;51.830;5.684;2023-07-08T08:30:58;24.90;52.90
42755;DHT22;28407;51.830;5.684;2023-07-08T08:32:59;24.90;52.90
42755;DHT22;28407;51.830;5.684;2023-07-08T08:34:59;25.00;52.90
42755;DHT22;28407;51.830;5.684;2023-07-08T08:37:00;25.10;52.90
42755;DHT22;28407;51.830;5.684;2023-07-08T08:39:01;25.10;52.80
42755;DHT22;28407;51.830;5.684;2023-07-08T08:41:18;25.10;52.80
42755;DHT22;28407;51.830;5.684;2023-07-08T08:43:23;25.20;52.90
42755;DHT22;28407;51.830;5.684;2023-07-08T08:45:24;25.20;52.70
42755;DHT22;28407;51.830;5.684;2023-07-08T08:47:42;25.30;52.70
42755;DHT22;28407;51.830;5.684;2023-07-08T08:49:50;25.40;52.70
42755;DHT22;28407;51.830;5.684;2023-07-08T08:51:51;25.40;52.70
42755;DHT22;28407;51.830;5.684;2023-07-08T08:53:56;25.50;52.70
42755;DHT22;28407;51.830;5.684;2023-07-08T08:56:09;25.60;52.60
42755;DHT22;28407;51.830;5.684;2023-07-08T09:00:42;25.70;52.50
42755;DHT22;28407;51.830;5.684;2023-07-08T09:03:04;25.70;52.40
42755;DHT22;28407;51.830;5.684;2023-07-08T09:05:10;25.80;52.30
42755;DHT22;28407;51.830;5.684;2023-07-08T09:07:16;25.90;52.30
42755;DHT22;28407;51.830;5.684;2023-07-08T09:09:24;25.90;52.20
42755;DHT22;28407;51.830;5.684;2023-07-08T09:12:06;26.00;52.30
42755;DHT22;28407;51.830;5.684;2023-07-08T09:14:27;26.00;52.20
42755;DHT22;28407;51.830;5.684;2023-07-08T09:19:32;26.20;51.80
42755;DHT22;28407;51.830;5.684;2023-07-08T09:21:44;26.20;51.70
42755;DHT22;28407;51.830;5.684;2023-07-08T09:23:47;26.30;51.80
42755;DHT22;28407;51.830;5.684;2023-07-08T09:26:04;26.40;51.70
42755;DHT22;28407;51.830;5.684;2023-07-08T09:28:07;26.40;51.70
42755;DHT22;28407;51.830;5.684;2023-07-08T09:30:17;26.50;51.60
42755;DHT22;28407;51.830;5.684;2023-07-08T09:32:26;26.50;51.50
42755;DHT22;28407;51.830;5.684;2023-07-08T09:34:41;26.60;51.30
42755;DHT22;28407;51.830;5.684;2023-07-08T09:36:46;26.70;51.20
42755;DHT22;28407;51.830;5.684;2023-07-08T09:38:48;26.70;51.20
42755;DHT22;28407;51.830;5.684;2023-07-08T09:40:51;26.80;51.20
42755;DHT22;28407;51.830;5.684;2023-07-08T09:43:02;26.90;51.10
42755;DHT22;28407;51.830;5.684;2023-07-08T09:45:12;26.90;51.00
42755;DHT22;28407;51.830;5.684;2023-07-08T09:47:25;27.00;50.80
42755;DHT22;28407;51.830;5.684;2023-07-08T09:49:32;27.10;50.90
42755;DHT22;28407;51.830;5.684;2023-07-08T09:51:33;27.20;50.80
42755;DHT22;28407;51.830;5.684;2023-07-08T09:53:34;27.30;50.50
42755;DHT22;28407;51.830;5.684;2023-07-08T09:55:35;27.30;50.40
42755;DHT22;28407;51.830;5.684;2023-07-08T09:57:36;27.50;50.20
42755;DHT22;28407;51.830;5.684;2023-07-08T09:59:46;27.50;50.00
42755;DHT22;28407;51.830;5.684;2023-07-08T10:01:48;27.60;49.90
42755;DHT22;28407;51.830;5.684;2023-07-08T10:03:48;27.70;49.90
42755;DHT22;28407;51.830;5.684;2023-07-08T10:05:49;27.70;49.70
42755;DHT22;28407;51.830;5.684;2023-07-08T10:07:54;27.80;49.50
42755;DHT22;28407;51.830;5.684;2023-07-08T10:09:58;27.90;49.40
42755;DHT22;28407;51.830;5.684;2023-07-08T10:12:02;27.90;49.30
42755;DHT22;28407;51.830;5.684;2023-07-08T10:14:09;28.00;49.30
42755;DHT22;28407;51.830;5.684;2023-07-08T10:18:16;28.00;49.30
42755;DHT22;28407;51.830;5.684;2023-07-08T10:20:18;28.10;49.30
42755;DHT22;28407;51.830;5.684;2023-07-08T10:22:33;28.20;49.20
42755;DHT22;28407;51.830;5.684;2023-07-08T10:25:08;28.30;49.10
42755;DHT22;28407;51.830;5.684;2023-07-08T10:31:48;28.50;48.60
42755;DHT22;28407;51.830;5.684;2023-07-08T10:38:31;28.80;48.20
42755;DHT22;28407;51.830;5.684;2023-07-08T10:49:51;29.20;46.50
42755;DHT22;28407;51.830;5.684;2023-07-08T11:03:47;29.80;45.70
42755;DHT22;28407;51.830;5.684;2023-07-08T11:06:20;29.90;45.40
42755;DHT22;28407;51.830;5.684;2023-07-08T11:08:58;30.00;45.10
42755;DHT22;28407;51.830;5.684;2023-07-08T11:10:56;30.10;45.10
42755;DHT22;28407;51.830;5.684;2023-07-08T11:13:03;30.20;44.80
42755;DHT22;28407;51.830;5.684;2023-07-08T11:18:07;30.40;44.20
42755;DHT22;28407;51.830;5.684;2023-07-08T11:20:18;30.50;43.80
42755;DHT22;28407;51.830;5.684;2023-07-08T11:22:22;30.60;43.80
42755;DHT22;28407;51.830;5.684;2023-07-08T11:24:34;30.60;43.60
42755;DHT22;28407;51.830;5.684;2023-07-08T11:26:48;30.80;43.70
42755;DHT22;28407;51.830;5.684;2023-07-08T11:28:54;30.90;43.80
42755;DHT22;28407;51.830;5.684;2023-07-08T11:30:58;30.90;43.90
42755;DHT22;28407;51.830;5.684;2023-07-08T11:33:08;31.00;44.00
42755;DHT22;28407;51.830;5.684;2023-07-08T11:35:21;31.10;44.20
42755;DHT22;28407;51.830;5.684;2023-07-08T11:37:24;31.10;44.20
42755;DHT22;28407;51.830;5.684;2023-07-08T11:41:31;31.20;44.20
42755;DHT22;28407;51.830;5.684;2023-07-08T11:43:50;31.40;44.30
42755;DHT22;28407;51.830;5.684;2023-07-08T11:45:55;31.40;44.20
42755;DHT22;28407;51.830;5.684;2023-07-08T11:48:12;31.50;44.40
42755;DHT22;28407;51.830;5.684;2023-07-08T11:52:17;31.70;44.60
42755;DHT22;28407;51.830;5.684;2023-07-08T11:54:31;31.80;44.40
42755;DHT22;28407;51.830;5.684;2023-07-08T11:57:17;31.90;44.20
42755;DHT22;28407;51.830;5.684;2023-07-08T11:59:19;32.00;44.10
42755;DHT22;28407;51.830;5.684;2023-07-08T12:01:30;32.10;44.20
42755;DHT22;28407;51.830;5.684;2023-07-08T12:03:47;32.20;44.00
42755;DHT22;28407;51.830;5.684;2023-07-08T12:05:48;32.30;44.00
42755;DHT22;28407;51.830;5.684;2023-07-08T12:07:55;32.30;44.00
42755;DHT22;28407;51.830;5.684;2023-07-08T12:10:04;32.50;43.90
42755;DHT22;28407;51.830;5.684;2023-07-08T12:12:21;32.50;43.90
42755;DHT22;28407;51.830;5.684;2023-07-08T12:14:24;32.60;43.60
42755;DHT22;28407;51.830;5.684;2023-07-08T12:16:27;32.70;43.60
42755;DHT22;28407;51.830;5.684;2023-07-08T12:18:33;32.80;43.60
42755;DHT22;28407;51.830;5.684;2023-07-08T12:20:38;32.80;43.30
42755;DHT22;28407;51.830;5.684;2023-07-08T12:22:39;32.90;43.20
42755;DHT22;28407;51.830;5.684;2023-07-08T12:24:40;32.90;43.10
42755;DHT22;28407;51.830;5.684;2023-07-08T12:26:42;33.10;43.10
42755;DHT22;28407;51.830;5.684;2023-07-08T12:28:43;33.20;43.00
42755;DHT22;28407;51.830;5.684;2023-07-08T12:30:45;33.30;42.90
42755;DHT22;28407;51.830;5.684;2023-07-08T12:32:46;33.40;42.50
42755;DHT22;28407;51.830;5.684;2023-07-08T12:34:47;33.50;42.10
42755;DHT22;28407;51.830;5.684;2023-07-08T12:36:48;33.60;41.70
42755;DHT22;28407;51.830;5.684;2023-07-08T12:38:49;33.60;41.20
42755;DHT22;28407;51.830;5.684;2023-07-08T12:40:50;33.60;41.00
42755;DHT22;28407;51.830;5.684;2023-07-08T12:42:51;33.70;41.10
42755;DHT22;28407;51.830;5.684;2023-07-08T12:44:52;33.70;41.00
42755;DHT22;28407;51.830;5.684;2023-07-08T12:46:54;33.80;41.10
42755;DHT22;28407;51.830;5.684;2023-07-08T12:48:55;33.80;41.00
42755;DHT22;28407;51.830;5.684;2023-07-08T12:50:56;33.90;41.10
42755;DHT22;28407;51.830;5.684;2023-07-08T12:52:56;34.00;41.00
42755;DHT22;28407;51.830;5.684;2023-07-08T12:54:57;34.10;40.70
42755;DHT22;28407;51.830;5.684;2023-07-08T12:56:58;34.10;40.30
42755;DHT22;28407;51.830;5.684;2023-07-08T12:58:59;34.20;39.80
42755;DHT22;28407;51.830;5.684;2023-07-08T13:01:02;34.30;39.60
42755;DHT22;28407;51.830;5.684;2023-07-08T13:03:17;34.30;39.30
42755;DHT22;28407;51.830;5.684;2023-07-08T13:05:18;34.40;38.90
42755;DHT22;28407;51.830;5.684;2023-07-08T13:09:40;34.50;38.50
42755;DHT22;28407;51.830;5.684;2023-07-08T13:11:43;34.70;38.50
42755;DHT22;28407;51.830;5.684;2023-07-08T13:13:50;34.80;38.60
42755;DHT22;28407;51.830;5.684;2023-07-08T13:15:54;34.80;38.40
42755;DHT22;28407;51.830;5.684;2023-07-08T13:17:55;35.00;38.40
42755;DHT22;28407;51.830;5.684;2023-07-08T13:19:57;35.10;38.20
42755;DHT22;28407;51.830;5.684;2023-07-08T13:21:58;35.10;37.80
42755;DHT22;28407;51.830;5.684;2023-07-08T13:24:00;35.20;37.50
42755;DHT22;28407;51.830;5.684;2023-07-08T13:26:11;35.30;37.30
42755;DHT22;28407;51.830;5.684;2023-07-08T13:28:22;35.40;37.50
42755;DHT22;28407;51.830;5.684;2023-07-08T13:30:25;35.50;37.50
42755;DHT22;28407;51.830;5.684;2023-07-08T13:32:31;35.50;37.50
42755;DHT22;28407;51.830;5.684;2023-07-08T13:34:32;35.60;37.30
42755;DHT22;28407;51.830;5.684;2023-07-08T13:36:37;35.70;37.10
42755;DHT22;28407;51.830;5.684;2023-07-08T13:38:39;35.80;36.80
42755;DHT22;28407;51.830;5.684;2023-07-08T13:40:46;35.90;36.80
42755;DHT22;28407;51.830;5.684;2023-07-08T13:42:49;35.90;36.80
42755;DHT22;28407;51.830;5.684;2023-07-08T13:44:50;36.00;37.10
42755;DHT22;28407;51.830;5.684;2023-07-08T13:46:53;36.20;36.60
42755;DHT22;28407;51.830;5.684;2023-07-08T13:48:54;36.30;36.50
42755;DHT22;28407;51.830;5.684;2023-07-08T13:51:14;36.30;36.50
42755;DHT22;28407;51.830;5.684;2023-07-08T13:53:17;36.30;36.40